sensor_id;sensor_type;location;lat;lon;timestamp;P1;durP1;ratioP1;P2;durP2;ratioP2
65533;SDS011;53640;55.838;37.184;2022-12-11T00:01:29;4.45;;;3.30;;
65533;SDS011;53640;55.838;37.184;2022-12-11T00:03:55;5.47;;;3.88;;
65533;SDS011;53640;55.838;37.184;2022-12-11T00:06:22;4.47;;;3.50;;
65533;SDS011;53640;55.838;37.184;2022-12-11T00:08:52;3.95;;;3.45;;
65533;SDS011;53640;55.838;37.184;2022-12-11T00:11:20;6.63;;;3.97;;
65533;SDS011;53640;55.838;37.184;2022-12-11T00:13:47;6.20;;;4.30;;
65533;SDS011;53640;55.838;37.184;2022-12-11T00:16:13;5.00;;;4.00;;
65533;SDS011;53640;55.838;37.184;2022-12-11T00:18:40;6.05;;;3.72;;
65533;SDS011;53640;55.838;37.184;2022-12-11T00:21:07;5.05;;;3.58;;
65533;SDS011;53640;55.838;37.184;2022-12-11T00:23:37;6.85;;;4.72;;
65533;SDS011;53640;55.838;37.184;2022-12-11T00:26:07;6.28;;;3.80;;
65533;SDS011;53640;55.838;37.184;2022-12-11T00:28:34;4.68;;;3.83;;
65533;SDS011;53640;55.838;37.184;2022-12-11T00:31:05;5.05;;;3.92;;
65533;SDS011;53640;55.838;37.184;2022-12-11T00:33:32;6.53;;;4.18;;
65533;SDS011;53640;55.838;37.184;2022-12-11T00:35:59;3.97;;;3.20;;
65533;SDS011;53640;55.838;37.184;2022-12-11T00:38:26;4.55;;;3.63;;
65533;SDS011;53640;55.838;37.184;2022-12-11T00:40:56;5.88;;;4.28;;
65533;SDS011;53640;55.838;37.184;2022-12-11T00:43:24;4.90;;;3.60;;
65533;SDS011;53640;55.838;37.184;2022-12-11T00:45:50;4.70;;;3.05;;
65533;SDS011;53640;55.838;37.184;2022-12-11T00:48:16;8.10;;;4.00;;
65533;SDS011;53640;55.838;37.184;2022-12-11T00:50:43;5.22;;;3.42;;
65533;SDS011;53640;55.838;37.184;2022-12-11T00:53:09;6.07;;;4.20;;
65533;SDS011;53640;55.838;37.184;2022-12-11T00:55:36;6.82;;;4.35;;
65533;SDS011;53640;55.838;37.184;2022-12-11T00:58:04;5.57;;;3.90;;
65533;SDS011;53640;55.838;37.184;2022-12-11T01:00:31;5.32;;;3.67;;
65533;SDS011;53640;55.838;37.184;2022-12-11T01:02:58;5.28;;;3.85;;
65533;SDS011;53640;55.838;37.184;2022-12-11T01:05:24;6.28;;;4.53;;
65533;SDS011;53640;55.838;37.184;2022-12-11T01:07:50;5.72;;;4.22;;
65533;SDS011;53640;55.838;37.184;2022-12-11T01:10:17;5.10;;;4.07;;
65533;SDS011;53640;55.838;37.184;2022-12-11T01:12:53;6.45;;;3.75;;
65533;SDS011;53640;55.838;37.184;2022-12-11T01:15:25;6.75;;;4.72;;
65533;SDS011;53640;55.838;37.184;2022-12-11T01:17:54;5.95;;;4.45;;
65533;SDS011;53640;55.838;37.184;2022-12-11T01:20:21;6.50;;;4.63;;
65533;SDS011;53640;55.838;37.184;2022-12-11T01:22:52;5.82;;;3.97;;
65533;SDS011;53640;55.838;37.184;2022-12-11T01:25:19;6.15;;;4.60;;
65533;SDS011;53640;55.838;37.184;2022-12-11T01:27:46;6.53;;;5.22;;
65533;SDS011;53640;55.838;37.184;2022-12-11T01:30:14;6.10;;;4.60;;
65533;SDS011;53640;55.838;37.184;2022-12-11T01:32:40;7.80;;;4.70;;
65533;SDS011;53640;55.838;37.184;2022-12-11T01:35:07;5.28;;;4.53;;
65533;SDS011;53640;55.838;37.184;2022-12-11T01:37:33;6.05;;;4.68;;
65533;SDS011;53640;55.838;37.184;2022-12-11T01:40:00;5.70;;;4.50;;
65533;SDS011;53640;55.838;37.184;2022-12-11T01:42:27;3.90;;;3.33;;
65533;SDS011;53640;55.838;37.184;2022-12-11T01:50:34;6.68;;;3.90;;
65533;SDS011;53640;55.838;37.184;2022-12-11T01:53:05;7.88;;;4.43;;
65533;SDS011;53640;55.838;37.184;2022-12-11T01:55:33;8.38;;;4.82;;
65533;SDS011;53640;55.838;37.184;2022-12-11T01:58:02;9.15;;;4.75;;
65533;SDS011;53640;55.838;37.184;2022-12-11T02:00:29;8.73;;;5.40;;
65533;SDS011;53640;55.838;37.184;2022-12-11T02:02:55;6.63;;;4.10;;
65533;SDS011;53640;55.838;37.184;2022-12-11T02:05:22;8.77;;;5.20;;
65533;SDS011;53640;55.838;37.184;2022-12-11T02:07:50;10.30;;;5.65;;
65533;SDS011;53640;55.838;37.184;2022-12-11T02:10:21;9.15;;;5.60;;
65533;SDS011;53640;55.838;37.184;2022-12-11T02:12:59;9.18;;;5.03;;
65533;SDS011;53640;55.838;37.184;2022-12-11T02:15:34;7.68;;;5.50;;
65533;SDS011;53640;55.838;37.184;2022-12-11T02:20:48;9.80;;;5.30;;
65533;SDS011;53640;55.838;37.184;2022-12-11T02:28:49;13.15;;;7.40;;
65533;SDS011;53640;55.838;37.184;2022-12-11T02:31:22;12.52;;;6.25;;
65533;SDS011;53640;55.838;37.184;2022-12-11T02:34:04;13.23;;;6.03;;
65533;SDS011;53640;55.838;37.184;2022-12-11T02:36:44;11.40;;;6.40;;
65533;SDS011;53640;55.838;37.184;2022-12-11T02:39:15;11.07;;;6.33;;
65533;SDS011;53640;55.838;37.184;2022-12-11T02:41:45;12.93;;;6.28;;
65533;SDS011;53640;55.838;37.184;2022-12-11T02:44:15;10.68;;;5.97;;
65533;SDS011;53640;55.838;37.184;2022-12-11T02:46:45;12.02;;;7.38;;
65533;SDS011;53640;55.838;37.184;2022-12-11T02:49:12;10.93;;;6.35;;
65533;SDS011;53640;55.838;37.184;2022-12-11T02:51:41;13.13;;;6.60;;
65533;SDS011;53640;55.838;37.184;2022-12-11T02:54:13;11.15;;;5.78;;
65533;SDS011;53640;55.838;37.184;2022-12-11T02:56:49;7.97;;;4.60;;
65533;SDS011;53640;55.838;37.184;2022-12-11T02:59:21;12.50;;;6.78;;
65533;SDS011;53640;55.838;37.184;2022-12-11T03:01:52;9.13;;;5.75;;
65533;SDS011;53640;55.838;37.184;2022-12-11T03:04:18;10.57;;;6.72;;
65533;SDS011;53640;55.838;37.184;2022-12-11T03:06:45;13.02;;;7.43;;
65533;SDS011;53640;55.838;37.184;2022-12-11T03:09:15;12.65;;;7.20;;
65533;SDS011;53640;55.838;37.184;2022-12-11T03:11:41;17.15;;;8.43;;
65533;SDS011;53640;55.838;37.184;2022-12-11T03:14:07;15.20;;;7.80;;
65533;SDS011;53640;55.838;37.184;2022-12-11T03:16:38;13.98;;;7.50;;
65533;SDS011;53640;55.838;37.184;2022-12-11T03:21:44;15.10;;;8.82;;
65533;SDS011;53640;55.838;37.184;2022-12-11T03:24:23;16.52;;;8.15;;
65533;SDS011;53640;55.838;37.184;2022-12-11T03:26:55;16.63;;;7.40;;
65533;SDS011;53640;55.838;37.184;2022-12-11T03:29:34;17.30;;;8.48;;
65533;SDS011;53640;55.838;37.184;2022-12-11T03:32:14;22.00;;;9.93;;
65533;SDS011;53640;55.838;37.184;2022-12-11T03:37:43;15.00;;;8.00;;
65533;SDS011;53640;55.838;37.184;2022-12-11T03:40:12;15.85;;;7.95;;
65533;SDS011;53640;55.838;37.184;2022-12-11T03:42:42;13.82;;;7.05;;
65533;SDS011;53640;55.838;37.184;2022-12-11T03:45:11;11.32;;;6.20;;
65533;SDS011;53640;55.838;37.184;2022-12-11T03:47:39;17.60;;;7.85;;
65533;SDS011;53640;55.838;37.184;2022-12-11T03:50:07;14.82;;;7.68;;
65533;SDS011;53640;55.838;37.184;2022-12-11T03:52:36;18.88;;;8.35;;
65533;SDS011;53640;55.838;37.184;2022-12-11T03:55:06;18.02;;;8.82;;
65533;SDS011;53640;55.838;37.184;2022-12-11T03:57:34;18.30;;;8.40;;
65533;SDS011;53640;55.838;37.184;2022-12-11T04:00:20;12.55;;;6.78;;
65533;SDS011;53640;55.838;37.184;2022-12-11T04:02:48;12.65;;;7.00;;
65533;SDS011;53640;55.838;37.184;2022-12-11T04:05:34;16.27;;;7.85;;
65533;SDS011;53640;55.838;37.184;2022-12-11T04:08:00;17.27;;;7.70;;
65533;SDS011;53640;55.838;37.184;2022-12-11T04:10:27;13.90;;;6.82;;
65533;SDS011;53640;55.838;37.184;2022-12-11T04:12:53;15.68;;;7.57;;
65533;SDS011;53640;55.838;37.184;2022-12-11T04:15:19;14.10;;;7.40;;
65533;SDS011;53640;55.838;37.184;2022-12-11T04:17:46;16.52;;;7.30;;
65533;SDS011;53640;55.838;37.184;2022-12-11T04:20:31;14.13;;;7.47;;
65533;SDS011;53640;55.838;37.184;2022-12-11T04:23:17;15.52;;;7.57;;
65533;SDS011;53640;55.838;37.184;2022-12-11T04:26:03;16.17;;;7.35;;
65533;SDS011;53640;55.838;37.184;2022-12-11T04:28:33;14.50;;;7.68;;
65533;SDS011;53640;55.838;37.184;2022-12-11T04:31:00;14.52;;;7.18;;
65533;SDS011;53640;55.838;37.184;2022-12-11T04:33:27;18.98;;;7.63;;
65533;SDS011;53640;55.838;37.184;2022-12-11T04:35:53;18.08;;;7.85;;
65533;SDS011;53640;55.838;37.184;2022-12-11T04:38:22;16.02;;;8.13;;
65533;SDS011;53640;55.838;37.184;2022-12-11T04:40:48;16.70;;;7.13;;
65533;SDS011;53640;55.838;37.184;2022-12-11T04:43:14;14.68;;;7.38;;
65533;SDS011;53640;55.838;37.184;2022-12-11T04:45:41;11.38;;;6.22;;
65533;SDS011;53640;55.838;37.184;2022-12-11T04:48:07;16.27;;;6.68;;
65533;SDS011;53640;55.838;37.184;2022-12-11T04:50:33;14.38;;;7.35;;
65533;SDS011;53640;55.838;37.184;2022-12-11T04:52:59;11.18;;;5.55;;
65533;SDS011;53640;55.838;37.184;2022-12-11T04:55:26;17.17;;;7.50;;
65533;SDS011;53640;55.838;37.184;2022-12-11T04:57:52;18.02;;;8.73;;
65533;SDS011;53640;55.838;37.184;2022-12-11T05:00:18;17.27;;;8.57;;
65533;SDS011;53640;55.838;37.184;2022-12-11T05:02:44;14.77;;;7.30;;
65533;SDS011;53640;55.838;37.184;2022-12-11T05:05:11;16.13;;;7.30;;
65533;SDS011;53640;55.838;37.184;2022-12-11T05:07:37;17.63;;;8.30;;
65533;SDS011;53640;55.838;37.184;2022-12-11T05:10:04;16.00;;;7.72;;
65533;SDS011;53640;55.838;37.184;2022-12-11T05:12:31;14.45;;;7.07;;
65533;SDS011;53640;55.838;37.184;2022-12-11T05:14:57;16.52;;;7.03;;
65533;SDS011;53640;55.838;37.184;2022-12-11T05:17:23;15.82;;;7.97;;
65533;SDS011;53640;55.838;37.184;2022-12-11T05:19:50;22.55;;;8.88;;
65533;SDS011;53640;55.838;37.184;2022-12-11T05:22:17;18.38;;;8.38;;
65533;SDS011;53640;55.838;37.184;2022-12-11T05:24:44;15.90;;;7.68;;
65533;SDS011;53640;55.838;37.184;2022-12-11T05:27:10;18.75;;;8.70;;
65533;SDS011;53640;55.838;37.184;2022-12-11T05:29:37;14.93;;;7.65;;
65533;SDS011;53640;55.838;37.184;2022-12-11T05:32:03;17.27;;;8.60;;
65533;SDS011;53640;55.838;37.184;2022-12-11T05:34:30;16.95;;;7.28;;
65533;SDS011;53640;55.838;37.184;2022-12-11T05:36:56;20.95;;;9.35;;
65533;SDS011;53640;55.838;37.184;2022-12-11T05:39:22;14.95;;;7.40;;
65533;SDS011;53640;55.838;37.184;2022-12-11T05:41:48;13.70;;;7.30;;
65533;SDS011;53640;55.838;37.184;2022-12-11T05:44:15;15.60;;;7.82;;
65533;SDS011;53640;55.838;37.184;2022-12-11T05:46:41;17.98;;;8.20;;
65533;SDS011;53640;55.838;37.184;2022-12-11T05:49:09;21.73;;;8.25;;
65533;SDS011;53640;55.838;37.184;2022-12-11T05:51:35;19.17;;;8.50;;
65533;SDS011;53640;55.838;37.184;2022-12-11T05:54:04;15.18;;;7.80;;
65533;SDS011;53640;55.838;37.184;2022-12-11T05:56:31;14.88;;;7.53;;
65533;SDS011;53640;55.838;37.184;2022-12-11T05:58:59;18.13;;;8.90;;
65533;SDS011;53640;55.838;37.184;2022-12-11T06:01:28;15.45;;;7.90;;
65533;SDS011;53640;55.838;37.184;2022-12-11T06:04:03;18.85;;;8.60;;
65533;SDS011;53640;55.838;37.184;2022-12-11T06:06:31;16.30;;;8.57;;
65533;SDS011;53640;55.838;37.184;2022-12-11T06:08:58;17.83;;;9.45;;
65533;SDS011;53640;55.838;37.184;2022-12-11T06:11:26;14.73;;;8.18;;
65533;SDS011;53640;55.838;37.184;2022-12-11T06:13:54;16.92;;;8.40;;
65533;SDS011;53640;55.838;37.184;2022-12-11T06:16:20;15.88;;;8.60;;
65533;SDS011;53640;55.838;37.184;2022-12-11T06:18:47;13.48;;;7.97;;
65533;SDS011;53640;55.838;37.184;2022-12-11T06:21:15;15.32;;;8.35;;
65533;SDS011;53640;55.838;37.184;2022-12-11T06:23:48;16.02;;;7.82;;
65533;SDS011;53640;55.838;37.184;2022-12-11T06:26:16;17.35;;;8.68;;
65533;SDS011;53640;55.838;37.184;2022-12-11T06:28:44;16.48;;;8.85;;
65533;SDS011;53640;55.838;37.184;2022-12-11T06:31:10;16.17;;;8.85;;
65533;SDS011;53640;55.838;37.184;2022-12-11T06:33:37;17.23;;;8.85;;
65533;SDS011;53640;55.838;37.184;2022-12-11T06:36:03;15.60;;;8.57;;
65533;SDS011;53640;55.838;37.184;2022-12-11T06:38:32;16.80;;;9.05;;
65533;SDS011;53640;55.838;37.184;2022-12-11T06:40:59;15.07;;;8.80;;
65533;SDS011;53640;55.838;37.184;2022-12-11T06:43:33;16.83;;;7.95;;
65533;SDS011;53640;55.838;37.184;2022-12-11T06:46:04;15.80;;;7.90;;
65533;SDS011;53640;55.838;37.184;2022-12-11T06:48:32;17.75;;;8.88;;
65533;SDS011;53640;55.838;37.184;2022-12-11T06:50:58;18.00;;;8.60;;
65533;SDS011;53640;55.838;37.184;2022-12-11T06:53:29;16.48;;;8.88;;
65533;SDS011;53640;55.838;37.184;2022-12-11T06:55:55;18.02;;;9.82;;
65533;SDS011;53640;55.838;37.184;2022-12-11T06:58:27;17.73;;;8.95;;
65533;SDS011;53640;55.838;37.184;2022-12-11T07:00:53;15.35;;;8.43;;
65533;SDS011;53640;55.838;37.184;2022-12-11T07:03:19;21.90;;;9.85;;
65533;SDS011;53640;55.838;37.184;2022-12-11T07:05:46;15.05;;;8.65;;
65533;SDS011;53640;55.838;37.184;2022-12-11T07:08:12;12.90;;;7.57;;
65533;SDS011;53640;55.838;37.184;2022-12-11T07:10:38;14.48;;;8.35;;
65533;SDS011;53640;55.838;37.184;2022-12-11T07:13:05;17.17;;;8.90;;
65533;SDS011;53640;55.838;37.184;2022-12-11T07:15:31;13.77;;;8.15;;
65533;SDS011;53640;55.838;37.184;2022-12-11T07:17:57;16.52;;;8.15;;
65533;SDS011;53640;55.838;37.184;2022-12-11T07:20:23;14.05;;;8.65;;
65533;SDS011;53640;55.838;37.184;2022-12-11T07:22:50;15.82;;;8.35;;
65533;SDS011;53640;55.838;37.184;2022-12-11T07:25:16;15.27;;;8.32;;
65533;SDS011;53640;55.838;37.184;2022-12-11T07:27:42;13.30;;;8.32;;
65533;SDS011;53640;55.838;37.184;2022-12-11T07:30:09;14.18;;;8.90;;
65533;SDS011;53640;55.838;37.184;2022-12-11T07:32:36;15.65;;;8.88;;
65533;SDS011;53640;55.838;37.184;2022-12-11T07:35:02;14.77;;;8.40;;
65533;SDS011;53640;55.838;37.184;2022-12-11T07:37:29;17.30;;;9.00;;
65533;SDS011;53640;55.838;37.184;2022-12-11T07:39:55;14.43;;;8.27;;
65533;SDS011;53640;55.838;37.184;2022-12-11T07:42:22;14.43;;;8.30;;
65533;SDS011;53640;55.838;37.184;2022-12-11T07:44:48;14.35;;;8.43;;
65533;SDS011;53640;55.838;37.184;2022-12-11T07:47:16;13.73;;;7.72;;
65533;SDS011;53640;55.838;37.184;2022-12-11T07:49:42;14.60;;;8.25;;
65533;SDS011;53640;55.838;37.184;2022-12-11T07:52:08;11.38;;;6.63;;
65533;SDS011;53640;55.838;37.184;2022-12-11T07:54:34;12.52;;;7.75;;
65533;SDS011;53640;55.838;37.184;2022-12-11T07:57:01;11.85;;;7.35;;
65533;SDS011;53640;55.838;37.184;2022-12-11T07:59:27;11.60;;;6.72;;
65533;SDS011;53640;55.838;37.184;2022-12-11T08:01:53;14.13;;;8.32;;
65533;SDS011;53640;55.838;37.184;2022-12-11T08:04:19;17.02;;;8.77;;
65533;SDS011;53640;55.838;37.184;2022-12-11T08:06:46;12.35;;;7.00;;
65533;SDS011;53640;55.838;37.184;2022-12-11T08:09:12;14.60;;;7.50;;
65533;SDS011;53640;55.838;37.184;2022-12-11T08:11:41;12.40;;;8.07;;
65533;SDS011;53640;55.838;37.184;2022-12-11T08:14:07;11.85;;;7.03;;
65533;SDS011;53640;55.838;37.184;2022-12-11T08:16:34;16.85;;;8.82;;
65533;SDS011;53640;55.838;37.184;2022-12-11T08:19:01;17.17;;;8.52;;
65533;SDS011;53640;55.838;37.184;2022-12-11T08:21:27;15.88;;;7.85;;
65533;SDS011;53640;55.838;37.184;2022-12-11T08:23:54;15.10;;;7.85;;
65533;SDS011;53640;55.838;37.184;2022-12-11T08:26:22;14.23;;;8.05;;
65533;SDS011;53640;55.838;37.184;2022-12-11T08:28:53;10.95;;;6.18;;
65533;SDS011;53640;55.838;37.184;2022-12-11T08:31:20;15.80;;;8.90;;
65533;SDS011;53640;55.838;37.184;2022-12-11T08:33:47;16.10;;;7.82;;
65533;SDS011;53640;55.838;37.184;2022-12-11T08:45:23;13.65;;;8.15;;
65533;SDS011;53640;55.838;37.184;2022-12-11T08:47:56;14.63;;;8.80;;
65533;SDS011;53640;55.838;37.184;2022-12-11T08:50:24;16.88;;;9.65;;
65533;SDS011;53640;55.838;37.184;2022-12-11T08:52:51;14.98;;;7.88;;
65533;SDS011;53640;55.838;37.184;2022-12-11T08:55:18;18.98;;;9.07;;
65533;SDS011;53640;55.838;37.184;2022-12-11T08:57:45;15.52;;;9.18;;
65533;SDS011;53640;55.838;37.184;2022-12-11T09:00:12;13.75;;;8.23;;
65533;SDS011;53640;55.838;37.184;2022-12-11T09:02:40;16.20;;;9.13;;
65533;SDS011;53640;55.838;37.184;2022-12-11T09:05:06;13.98;;;7.68;;
65533;SDS011;53640;55.838;37.184;2022-12-11T09:07:34;15.45;;;8.45;;
65533;SDS011;53640;55.838;37.184;2022-12-11T09:10:02;15.82;;;8.20;;
65533;SDS011;53640;55.838;37.184;2022-12-11T09:12:30;15.55;;;7.90;;
65533;SDS011;53640;55.838;37.184;2022-12-11T09:14:57;13.63;;;7.88;;
65533;SDS011;53640;55.838;37.184;2022-12-11T09:17:23;15.18;;;9.00;;
65533;SDS011;53640;55.838;37.184;2022-12-11T09:19:49;15.07;;;8.35;;
65533;SDS011;53640;55.838;37.184;2022-12-11T09:22:16;16.00;;;8.85;;
65533;SDS011;53640;55.838;37.184;2022-12-11T09:24:42;15.25;;;8.73;;
65533;SDS011;53640;55.838;37.184;2022-12-11T09:27:16;15.15;;;9.43;;
65533;SDS011;53640;55.838;37.184;2022-12-11T09:29:49;19.10;;;10.32;;
65533;SDS011;53640;55.838;37.184;2022-12-11T09:32:16;17.48;;;9.98;;
65533;SDS011;53640;55.838;37.184;2022-12-11T09:34:42;17.52;;;9.25;;
65533;SDS011;53640;55.838;37.184;2022-12-11T09:37:08;15.00;;;8.98;;
65533;SDS011;53640;55.838;37.184;2022-12-11T09:39:35;17.73;;;8.93;;
65533;SDS011;53640;55.838;37.184;2022-12-11T09:44:50;16.30;;;9.52;;
65533;SDS011;53640;55.838;37.184;2022-12-11T09:47:23;17.50;;;9.25;;
65533;SDS011;53640;55.838;37.184;2022-12-11T09:52:39;16.83;;;8.68;;
65533;SDS011;53640;55.838;37.184;2022-12-11T09:55:28;13.50;;;8.13;;
65533;SDS011;53640;55.838;37.184;2022-12-11T10:00:58;15.00;;;7.35;;
65533;SDS011;53640;55.838;37.184;2022-12-11T10:09:30;10.93;;;6.82;;
65533;SDS011;53640;55.838;37.184;2022-12-11T10:17:11;13.48;;;7.95;;
65533;SDS011;53640;55.838;37.184;2022-12-11T10:19:45;11.10;;;6.95;;
65533;SDS011;53640;55.838;37.184;2022-12-11T10:22:30;10.05;;;6.72;;
65533;SDS011;53640;55.838;37.184;2022-12-11T10:25:04;12.43;;;6.80;;
65533;SDS011;53640;55.838;37.184;2022-12-11T10:27:33;13.10;;;6.47;;
65533;SDS011;53640;55.838;37.184;2022-12-11T10:35:18;12.77;;;6.90;;
65533;SDS011;53640;55.838;37.184;2022-12-11T10:37:54;14.02;;;7.63;;
65533;SDS011;53640;55.838;37.184;2022-12-11T10:40:27;12.00;;;7.40;;
65533;SDS011;53640;55.838;37.184;2022-12-11T10:42:55;14.02;;;8.02;;
65533;SDS011;53640;55.838;37.184;2022-12-11T10:45:22;13.45;;;8.02;;
65533;SDS011;53640;55.838;37.184;2022-12-11T10:47:48;14.07;;;8.18;;
65533;SDS011;53640;55.838;37.184;2022-12-11T10:50:21;9.63;;;6.30;;
65533;SDS011;53640;55.838;37.184;2022-12-11T10:52:49;10.80;;;6.55;;
65533;SDS011;53640;55.838;37.184;2022-12-11T10:55:51;11.85;;;7.40;;
65533;SDS011;53640;55.838;37.184;2022-12-11T10:58:15;11.70;;;7.05;;
65533;SDS011;53640;55.838;37.184;2022-12-11T11:00:44;11.63;;;7.32;;
65533;SDS011;53640;55.838;37.184;2022-12-11T11:03:22;16.60;;;8.60;;
65533;SDS011;53640;55.838;37.184;2022-12-11T11:06:13;14.18;;;7.90;;
65533;SDS011;53640;55.838;37.184;2022-12-11T11:08:43;13.65;;;8.13;;
65533;SDS011;53640;55.838;37.184;2022-12-11T11:16:30;11.98;;;7.47;;
65533;SDS011;53640;55.838;37.184;2022-12-11T11:19:00;12.15;;;7.18;;
65533;SDS011;53640;55.838;37.184;2022-12-11T11:21:26;13.55;;;8.13;;
65533;SDS011;53640;55.838;37.184;2022-12-11T11:23:56;16.05;;;8.80;;
65533;SDS011;53640;55.838;37.184;2022-12-11T11:26:23;17.60;;;9.10;;
65533;SDS011;53640;55.838;37.184;2022-12-11T11:28:56;17.02;;;9.05;;
65533;SDS011;53640;55.838;37.184;2022-12-11T11:31:34;13.90;;;8.50;;
65533;SDS011;53640;55.838;37.184;2022-12-11T11:34:02;12.65;;;7.78;;
65533;SDS011;53640;55.838;37.184;2022-12-11T11:36:33;12.57;;;7.83;;
65533;SDS011;53640;55.838;37.184;2022-12-11T11:44:23;16.85;;;8.93;;
65533;SDS011;53640;55.838;37.184;2022-12-11T11:46:57;14.98;;;7.78;;
65533;SDS011;53640;55.838;37.184;2022-12-11T11:52:01;12.05;;;7.03;;
65533;SDS011;53640;55.838;37.184;2022-12-11T11:55:13;13.43;;;8.27;;
65533;SDS011;53640;55.838;37.184;2022-12-11T11:58:00;17.38;;;9.57;;
65533;SDS011;53640;55.838;37.184;2022-12-11T12:00:32;16.65;;;9.57;;
65533;SDS011;53640;55.838;37.184;2022-12-11T12:03:08;20.65;;;9.80;;
65533;SDS011;53640;55.838;37.184;2022-12-11T12:14:01;12.07;;;7.38;;
65533;SDS011;53640;55.838;37.184;2022-12-11T12:30:44;20.75;;;9.82;;
65533;SDS011;53640;55.838;37.184;2022-12-11T12:33:21;19.58;;;11.00;;
65533;SDS011;53640;55.838;37.184;2022-12-11T12:36:13;15.80;;;8.48;;
65533;SDS011;53640;55.838;37.184;2022-12-11T12:38:48;18.33;;;9.25;;
65533;SDS011;53640;55.838;37.184;2022-12-11T12:44:15;21.50;;;11.48;;
65533;SDS011;53640;55.838;37.184;2022-12-11T12:47:02;21.70;;;10.73;;
65533;SDS011;53640;55.838;37.184;2022-12-11T12:49:41;18.65;;;10.00;;
65533;SDS011;53640;55.838;37.184;2022-12-11T12:52:14;18.15;;;9.43;;
65533;SDS011;53640;55.838;37.184;2022-12-11T12:54:43;20.40;;;9.48;;
65533;SDS011;53640;55.838;37.184;2022-12-11T12:57:33;15.68;;;8.50;;
65533;SDS011;53640;55.838;37.184;2022-12-11T13:00:00;17.17;;;9.77;;
65533;SDS011;53640;55.838;37.184;2022-12-11T13:02:26;15.57;;;9.15;;
65533;SDS011;53640;55.838;37.184;2022-12-11T13:04:58;21.50;;;10.15;;
65533;SDS011;53640;55.838;37.184;2022-12-11T13:07:31;17.75;;;9.45;;
65533;SDS011;53640;55.838;37.184;2022-12-11T13:12:44;15.35;;;9.15;;
65533;SDS011;53640;55.838;37.184;2022-12-11T13:17:58;16.67;;;8.85;;
65533;SDS011;53640;55.838;37.184;2022-12-11T13:20:27;18.52;;;10.27;;
65533;SDS011;53640;55.838;37.184;2022-12-11T13:25:32;17.13;;;9.98;;
65533;SDS011;53640;55.838;37.184;2022-12-11T13:28:46;18.35;;;10.15;;
65533;SDS011;53640;55.838;37.184;2022-12-11T13:33:45;18.65;;;10.32;;
65533;SDS011;53640;55.838;37.184;2022-12-11T13:38:59;14.82;;;8.57;;
65533;SDS011;53640;55.838;37.184;2022-12-11T13:41:26;16.33;;;9.95;;
65533;SDS011;53640;55.838;37.184;2022-12-11T13:43:53;15.48;;;9.80;;
65533;SDS011;53640;55.838;37.184;2022-12-11T13:46:24;18.80;;;10.60;;
65533;SDS011;53640;55.838;37.184;2022-12-11T13:48:55;14.43;;;8.57;;
65533;SDS011;53640;55.838;37.184;2022-12-11T13:51:28;15.43;;;9.00;;
65533;SDS011;53640;55.838;37.184;2022-12-11T13:57:31;12.13;;;7.85;;
65533;SDS011;53640;55.838;37.184;2022-12-11T13:59:51;16.67;;;10.05;;
65533;SDS011;53640;55.838;37.184;2022-12-11T14:04:59;16.60;;;9.98;;
65533;SDS011;53640;55.838;37.184;2022-12-11T14:07:37;15.35;;;8.52;;
65533;SDS011;53640;55.838;37.184;2022-12-11T14:10:14;18.33;;;9.85;;
65533;SDS011;53640;55.838;37.184;2022-12-11T14:15:39;16.33;;;9.80;;
65533;SDS011;53640;55.838;37.184;2022-12-11T14:18:20;14.43;;;8.38;;
65533;SDS011;53640;55.838;37.184;2022-12-11T14:20:55;14.82;;;9.15;;
65533;SDS011;53640;55.838;37.184;2022-12-11T14:23:29;13.23;;;8.50;;
65533;SDS011;53640;55.838;37.184;2022-12-11T14:28:27;14.13;;;8.40;;
65533;SDS011;53640;55.838;37.184;2022-12-11T14:30:56;13.13;;;8.38;;
65533;SDS011;53640;55.838;37.184;2022-12-11T14:33:26;13.38;;;8.80;;
65533;SDS011;53640;55.838;37.184;2022-12-11T14:35:57;13.40;;;7.70;;
65533;SDS011;53640;55.838;37.184;2022-12-11T14:38:26;11.75;;;7.97;;
65533;SDS011;53640;55.838;37.184;2022-12-11T14:41:02;12.57;;;8.32;;
65533;SDS011;53640;55.838;37.184;2022-12-11T14:43:37;11.93;;;7.78;;
65533;SDS011;53640;55.838;37.184;2022-12-11T14:46:15;14.20;;;8.45;;
65533;SDS011;53640;55.838;37.184;2022-12-11T14:48:56;15.15;;;7.93;;
65533;SDS011;53640;55.838;37.184;2022-12-11T14:51:28;11.55;;;7.32;;
65533;SDS011;53640;55.838;37.184;2022-12-11T14:53:59;13.13;;;7.80;;
65533;SDS011;53640;55.838;37.184;2022-12-11T14:56:26;12.57;;;7.85;;
65533;SDS011;53640;55.838;37.184;2022-12-11T14:59:05;12.35;;;7.45;;
65533;SDS011;53640;55.838;37.184;2022-12-11T15:01:35;12.27;;;7.82;;
65533;SDS011;53640;55.838;37.184;2022-12-11T15:04:04;14.43;;;7.68;;
65533;SDS011;53640;55.838;37.184;2022-12-11T15:06:44;13.55;;;8.10;;
65533;SDS011;53640;55.838;37.184;2022-12-11T15:09:16;11.63;;;6.90;;
65533;SDS011;53640;55.838;37.184;2022-12-11T15:11:46;10.40;;;5.88;;
65533;SDS011;53640;55.838;37.184;2022-12-11T15:14:15;11.68;;;6.35;;
65533;SDS011;53640;55.838;37.184;2022-12-11T15:16:44;10.38;;;6.47;;
65533;SDS011;53640;55.838;37.184;2022-12-11T15:19:17;10.95;;;6.40;;
65533;SDS011;53640;55.838;37.184;2022-12-11T15:21:48;12.27;;;7.15;;
65533;SDS011;53640;55.838;37.184;2022-12-11T15:24:22;11.63;;;7.30;;
65533;SDS011;53640;55.838;37.184;2022-12-11T15:26:56;13.77;;;7.78;;
65533;SDS011;53640;55.838;37.184;2022-12-11T15:29:31;10.70;;;6.80;;
65533;SDS011;53640;55.838;37.184;2022-12-11T15:34:47;8.93;;;5.90;;
65533;SDS011;53640;55.838;37.184;2022-12-11T15:37:23;9.63;;;6.35;;
65533;SDS011;53640;55.838;37.184;2022-12-11T15:39:58;9.48;;;6.68;;
65533;SDS011;53640;55.838;37.184;2022-12-11T15:44:52;12.07;;;7.85;;
65533;SDS011;53640;55.838;37.184;2022-12-11T15:47:22;14.32;;;7.20;;
65533;SDS011;53640;55.838;37.184;2022-12-11T15:49:52;10.82;;;6.18;;
65533;SDS011;53640;55.838;37.184;2022-12-11T15:52:22;9.90;;;6.47;;
65533;SDS011;53640;55.838;37.184;2022-12-11T15:54:48;11.20;;;6.35;;
65533;SDS011;53640;55.838;37.184;2022-12-11T15:57:15;10.20;;;6.38;;
65533;SDS011;53640;55.838;37.184;2022-12-11T15:59:44;9.93;;;6.30;;
65533;SDS011;53640;55.838;37.184;2022-12-11T16:02:13;10.77;;;6.38;;
65533;SDS011;53640;55.838;37.184;2022-12-11T16:04:41;8.45;;;6.00;;
65533;SDS011;53640;55.838;37.184;2022-12-11T16:07:17;6.97;;;5.57;;
65533;SDS011;53640;55.838;37.184;2022-12-11T16:09:49;11.60;;;5.88;;
65533;SDS011;53640;55.838;37.184;2022-12-11T16:12:15;8.02;;;5.55;;
65533;SDS011;53640;55.838;37.184;2022-12-11T16:14:42;10.50;;;6.18;;
65533;SDS011;53640;55.838;37.184;2022-12-11T16:17:12;8.98;;;5.57;;
65533;SDS011;53640;55.838;37.184;2022-12-11T16:19:47;9.77;;;6.78;;
65533;SDS011;53640;55.838;37.184;2022-12-11T16:22:13;10.38;;;6.28;;
65533;SDS011;53640;55.838;37.184;2022-12-11T16:24:39;15.02;;;6.18;;
65533;SDS011;53640;55.838;37.184;2022-12-11T16:27:06;8.27;;;5.88;;
65533;SDS011;53640;55.838;37.184;2022-12-11T16:29:35;9.60;;;6.70;;
65533;SDS011;53640;55.838;37.184;2022-12-11T16:32:04;10.27;;;6.07;;
65533;SDS011;53640;55.838;37.184;2022-12-11T16:34:33;11.35;;;5.95;;
65533;SDS011;53640;55.838;37.184;2022-12-11T16:37:01;9.55;;;6.00;;
65533;SDS011;53640;55.838;37.184;2022-12-11T16:39:27;7.85;;;5.40;;
65533;SDS011;53640;55.838;37.184;2022-12-11T16:41:53;9.15;;;5.90;;